createdAt,value
2022-10-17T00:00:24.188Z,14.11
2022-10-17T00:01:24.229Z,14.08
2022-10-17T00:02:24.062Z,14.08
2022-10-17T00:03:24.083Z,14.05
2022-10-17T00:04:24.081Z,14.05
2022-10-17T00:05:24.317Z,14.06
2022-10-17T00:06:24.032Z,14.05
2022-10-17T00:07:24.022Z,14.05
2022-10-17T00:08:23.988Z,14.08
2022-10-17T00:09:23.978Z,14.08
2022-10-17T00:10:23.956Z,14.08
2022-10-17T00:11:23.986Z,14.11
2022-10-17T00:12:23.970Z,14.11
2022-10-17T00:13:23.957Z,14.08
2022-10-17T00:14:23.892Z,14.08
2022-10-17T00:15:23.923Z,14.06
2022-10-17T00:16:23.851Z,14.06
2022-10-17T00:17:23.875Z,14.09
2022-10-17T00:18:23.852Z,14.08
2022-10-17T00:19:23.850Z,14.09
2022-10-17T00:20:23.800Z,14.09
2022-10-17T00:21:23.808Z,14.12
2022-10-17T00:22:23.896Z,14.11
2022-10-17T00:23:23.772Z,14.12
2022-10-17T00:24:23.755Z,14.11
2022-10-17T00:25:23.754Z,14.12
2022-10-17T00:26:23.762Z,14.11
2022-10-17T00:27:23.716Z,14.11
2022-10-17T00:28:23.800Z,14.11
2022-10-17T00:29:23.708Z,14.06
2022-10-17T00:30:23.673Z,14.04
2022-10-17T00:31:23.735Z,14.01
2022-10-17T00:32:23.700Z,14.02
2022-10-17T00:33:23.659Z,13.98
2022-10-17T00:34:23.650Z,13.96
2022-10-17T00:35:23.613Z,13.93
2022-10-17T00:36:23.616Z,13.94
2022-10-17T00:37:23.676Z,13.94
2022-10-17T00:38:23.578Z,13.96
2022-10-17T00:39:23.573Z,13.98
2022-10-17T00:40:23.536Z,13.99
2022-10-17T00:41:23.585Z,13.98
2022-10-17T00:42:23.524Z,13.99
2022-10-17T00:43:23.505Z,14.01
2022-10-17T00:44:23.501Z,14.01
2022-10-17T00:45:23.538Z,14.02
2022-10-17T00:46:23.496Z,14.02
2022-10-17T00:47:23.496Z,14.01
2022-10-17T00:48:23.501Z,14.02
2022-10-17T00:49:23.460Z,14.04
2022-10-17T00:50:23.523Z,14.04
2022-10-17T00:51:23.436Z,14.04
2022-10-17T00:52:23.455Z,14.04
2022-10-17T00:53:23.402Z,14.02
2022-10-17T00:54:23.361Z,14.02
2022-10-17T00:55:23.381Z,14.02
2022-10-17T00:56:23.359Z,14.02
2022-10-17T00:57:23.384Z,14.04
2022-10-17T00:58:23.318Z,14.05
2022-10-17T00:59:23.340Z,14.02
2022-10-17T01:00:23.282Z,14.04
2022-10-17T01:01:23.368Z,14.05
2022-10-17T01:02:23.265Z,14.05
2022-10-17T01:03:23.279Z,14.06
2022-10-17T01:04:23.252Z,14.09
2022-10-17T01:05:23.244Z,14.11
2022-10-17T01:06:23.216Z,14.12
2022-10-17T01:07:23.215Z,14.12
2022-10-17T01:08:23.184Z,14.11
2022-10-17T01:09:23.163Z,14.11
2022-10-17T01:11:23.134Z,14.09
2022-10-17T01:12:23.169Z,14.09
2022-10-17T01:13:23.189Z,14.09
2022-10-17T01:14:23.133Z,14.08
2022-10-17T01:15:23.101Z,14.06
2022-10-17T01:16:23.110Z,14.04
2022-10-17T01:17:23.223Z,14.02
2022-10-17T01:18:23.062Z,14.01
2022-10-17T01:20:23.013Z,13.99
2022-10-17T01:21:23.060Z,13.96
2022-10-17T01:22:22.990Z,13.94
2022-10-17T01:23:23.010Z,13.94
2022-10-17T01:24:22.990Z,13.91
2022-10-17T01:25:23.031Z,13.90
2022-10-17T01:26:22.981Z,13.88
2022-10-17T01:27:22.954Z,13.90
2022-10-17T01:28:23.061Z,13.88
2022-10-17T01:29:23.903Z,13.86
2022-10-17T01:30:22.913Z,13.88
2022-10-17T01:31:22.928Z,13.84
2022-10-17T01:32:22.961Z,13.87
2022-10-17T01:33:22.851Z,13.84
2022-10-17T01:34:22.838Z,13.84
2022-10-17T01:35:22.870Z,13.84
2022-10-17T01:36:22.835Z,13.84
2022-10-17T01:37:22.842Z,13.84
2022-10-17T01:38:22.781Z,13.83
2022-10-17T01:39:22.924Z,13.83
2022-10-17T01:40:22.749Z,13.81
2022-10-17T01:41:22.762Z,13.81
2022-10-17T01:42:22.748Z,13.81
2022-10-17T01:43:22.763Z,13.79
2022-10-17T01:44:22.767Z,13.75
2022-10-17T01:45:22.721Z,13.73
2022-10-17T01:46:22.739Z,13.73
2022-10-17T01:47:22.786Z,13.73
2022-10-17T01:48:22.668Z,13.72
2022-10-17T01:49:22.662Z,13.72
2022-10-17T01:51:39.254Z,13.73
2022-10-17T01:52:39.231Z,13.72
2022-10-17T01:53:39.214Z,13.72
2022-10-17T01:54:39.203Z,13.71
2022-10-17T01:55:39.194Z,13.71
2022-10-17T01:56:39.178Z,13.71
2022-10-17T01:57:39.183Z,13.71
2022-10-17T01:58:39.163Z,13.69
2022-10-17T01:59:39.160Z,13.66
2022-10-17T02:00:39.122Z,13.65
2022-10-17T02:01:39.179Z,13.65
2022-10-17T02:02:39.102Z,13.63
2022-10-17T02:03:39.100Z,13.61
2022-10-17T02:04:39.071Z,13.57
2022-10-17T02:05:39.062Z,13.59
2022-10-17T02:06:39.053Z,13.57
2022-10-17T02:07:39.039Z,13.54
2022-10-17T02:08:39.029Z,13.53
2022-10-17T02:09:39.022Z,13.53
2022-10-17T02:10:38.997Z,13.53
2022-10-17T02:11:38.987Z,13.51
2022-10-17T02:12:38.990Z,13.53
2022-10-17T02:13:38.975Z,13.51
2022-10-17T02:14:38.999Z,13.50
2022-10-17T02:15:38.946Z,13.48
2022-10-17T02:16:38.983Z,13.47
2022-10-17T02:17:38.918Z,13.47
2022-10-17T02:18:38.890Z,13.48
2022-10-17T02:19:39.003Z,13.48
2022-10-17T02:20:38.868Z,13.48
2022-10-17T02:21:38.858Z,13.47
2022-10-17T02:22:38.851Z,13.47
2022-10-17T02:23:38.848Z,13.48
2022-10-17T02:24:38.859Z,13.48
2022-10-17T02:25:38.817Z,13.50
2022-10-17T02:26:38.806Z,13.50
2022-10-17T02:27:38.792Z,13.53
2022-10-17T02:28:38.805Z,13.51
2022-10-17T02:29:38.747Z,13.55
2022-10-17T02:30:38.743Z,13.57
2022-10-17T02:31:38.738Z,13.57
2022-10-17T02:32:38.717Z,13.59
2022-10-17T02:33:38.712Z,13.57
2022-10-17T02:34:38.689Z,13.61
2022-10-17T02:35:38.688Z,13.62
2022-10-17T02:36:38.697Z,13.62
2022-10-17T02:37:38.656Z,13.62
2022-10-17T02:38:38.648Z,13.62
2022-10-17T02:39:38.645Z,13.61
2022-10-17T02:40:38.614Z,13.61
2022-10-17T02:41:38.625Z,13.59
2022-10-17T02:42:38.585Z,13.55
2022-10-17T02:43:38.577Z,13.54
2022-10-17T02:44:38.561Z,13.54
2022-10-17T02:45:38.563Z,13.53
2022-10-17T02:46:38.550Z,13.53
2022-10-17T02:47:38.534Z,13.51
2022-10-17T02:48:38.506Z,13.53
2022-10-17T02:49:38.504Z,13.51
2022-10-17T02:50:38.494Z,13.51
2022-10-17T02:51:38.473Z,13.51
2022-10-17T02:52:38.499Z,13.48
2022-10-17T02:53:38.455Z,13.50
2022-10-17T02:54:38.463Z,13.51
2022-10-17T02:55:38.464Z,13.53
2022-10-17T02:56:38.460Z,13.53
2022-10-17T02:57:38.483Z,13.54
2022-10-17T02:58:38.401Z,13.53
2022-10-17T02:59:38.408Z,13.51
2022-10-17T03:00:38.361Z,13.50
2022-10-17T03:01:38.571Z,13.48
2022-10-17T03:02:38.345Z,13.48
2022-10-17T03:03:38.338Z,13.50
2022-10-17T03:04:38.321Z,13.50
2022-10-17T03:05:38.317Z,13.48
2022-10-17T03:06:38.329Z,13.51
2022-10-17T03:07:38.461Z,13.51
2022-10-17T03:09:38.252Z,13.55
2022-10-17T03:10:38.232Z,13.55
2022-10-17T03:11:38.222Z,13.55
2022-10-17T03:12:38.222Z,13.55
2022-10-17T03:13:39.855Z,13.55
2022-10-17T03:14:38.189Z,13.55
2022-10-17T03:15:38.185Z,13.59
2022-10-17T03:16:38.159Z,13.61
2022-10-17T03:17:38.207Z,13.57
2022-10-17T03:18:38.128Z,13.61
2022-10-17T03:19:38.138Z,13.61
2022-10-17T03:20:38.109Z,13.62
2022-10-17T03:21:38.090Z,13.65
2022-10-17T03:22:38.091Z,13.66
2022-10-17T03:23:38.070Z,13.68
2022-10-17T03:24:38.049Z,13.72
2022-10-17T03:25:38.040Z,13.73
2022-10-17T03:26:38.069Z,13.73
2022-10-17T03:27:38.018Z,13.75
2022-10-17T03:28:38.060Z,13.76
2022-10-17T03:29:37.997Z,13.76
2022-10-17T03:30:37.978Z,13.76
2022-10-17T03:31:37.964Z,13.76
2022-10-17T03:32:37.944Z,13.79
2022-10-17T03:33:37.927Z,13.80
2022-10-17T03:34:37.922Z,13.80
2022-10-17T03:35:37.961Z,13.79
2022-10-17T03:36:37.928Z,13.80
2022-10-17T03:37:37.897Z,13.79
2022-10-17T03:38:37.875Z,13.76
2022-10-17T03:39:37.866Z,13.76
2022-10-17T03:40:37.860Z,13.76
2022-10-17T03:41:37.845Z,13.76
2022-10-17T03:42:37.828Z,13.75
2022-10-17T03:43:37.814Z,13.76
2022-10-17T03:44:37.808Z,13.75
2022-10-17T03:45:37.804Z,13.76
2022-10-17T03:46:37.785Z,13.75
2022-10-17T03:47:37.766Z,13.76
2022-10-17T03:48:37.753Z,13.76
2022-10-17T03:49:37.764Z,13.79
2022-10-17T03:50:37.735Z,13.81
2022-10-17T03:51:37.700Z,13.83
2022-10-17T03:52:37.699Z,13.84
2022-10-17T03:53:37.684Z,13.84
2022-10-17T03:54:37.670Z,13.86
2022-10-17T03:55:37.655Z,13.84
2022-10-17T03:56:37.655Z,13.84
2022-10-17T03:57:39.268Z,13.86
2022-10-17T03:58:37.622Z,13.84
2022-10-17T03:59:37.615Z,13.83
2022-10-17T04:00:37.604Z,13.84
2022-10-17T04:01:37.641Z,13.84
2022-10-17T04:02:37.579Z,13.81
2022-10-17T04:03:37.551Z,13.81
2022-10-17T04:04:37.569Z,13.80
2022-10-17T04:05:37.530Z,13.79
2022-10-17T04:06:37.523Z,13.76
2022-10-17T04:07:37.515Z,13.75
2022-10-17T04:08:37.501Z,13.73
2022-10-17T04:09:37.482Z,13.75
2022-10-17T04:10:37.472Z,13.73
2022-10-17T04:11:37.449Z,13.73
2022-10-17T04:12:37.451Z,13.75
2022-10-17T04:13:37.431Z,13.75
2022-10-17T04:14:37.429Z,13.75
2022-10-17T04:15:37.401Z,13.73
2022-10-17T04:16:37.419Z,13.73
2022-10-17T04:17:38.256Z,13.76
2022-10-17T04:18:37.379Z,13.75
2022-10-17T04:19:37.340Z,13.73
2022-10-17T04:20:37.330Z,13.75
2022-10-17T04:21:37.322Z,13.75
2022-10-17T04:22:37.307Z,13.73
2022-10-17T04:23:37.315Z,13.73
2022-10-17T04:24:37.291Z,13.73
2022-10-17T04:25:37.279Z,13.72
2022-10-17T04:26:37.290Z,13.72
2022-10-17T04:27:37.254Z,13.72
2022-10-17T04:29:37.233Z,13.73
2022-10-17T04:30:38.005Z,13.75
2022-10-17T04:31:37.209Z,13.72
2022-10-17T04:32:37.198Z,13.71
2022-10-17T04:33:37.172Z,13.71
2022-10-17T04:34:37.156Z,13.71
2022-10-17T04:35:37.159Z,13.71
2022-10-17T04:36:37.138Z,13.71
2022-10-17T04:37:37.126Z,13.72
2022-10-17T04:38:37.131Z,13.73
2022-10-17T04:39:37.087Z,13.75
2022-10-17T04:40:37.087Z,13.75
2022-10-17T04:41:37.063Z,13.79
2022-10-17T04:42:37.056Z,13.81
2022-10-17T04:43:37.063Z,13.81
2022-10-17T04:44:37.046Z,13.83
2022-10-17T04:45:37.035Z,13.84
2022-10-17T04:46:37.036Z,13.86
2022-10-17T04:47:37.004Z,13.86
2022-10-17T04:48:36.996Z,13.86
2022-10-17T04:49:37.017Z,13.84
2022-10-17T04:50:36.964Z,13.84
2022-10-17T04:51:36.940Z,13.86
2022-10-17T04:52:36.932Z,13.83
2022-10-17T04:53:36.924Z,13.83
2022-10-17T04:54:36.904Z,13.80
2022-10-17T04:55:36.894Z,13.80
2022-10-17T04:56:36.876Z,13.86
2022-10-17T04:57:36.876Z,13.86
2022-10-17T04:58:36.854Z,13.93
2022-10-17T04:59:36.844Z,13.90
2022-10-17T05:00:36.860Z,13.90
2022-10-17T05:01:36.834Z,13.93
2022-10-17T05:02:36.795Z,13.99
2022-10-17T05:03:36.785Z,13.99
2022-10-17T05:04:36.773Z,13.98
2022-10-17T05:05:36.781Z,13.99
2022-10-17T05:06:36.780Z,13.99
2022-10-17T05:07:36.737Z,13.98
2022-10-17T05:08:36.742Z,13.96
2022-10-17T05:09:36.708Z,13.94
2022-10-17T05:10:36.702Z,13.96
2022-10-17T05:11:36.682Z,13.94
2022-10-17T05:12:36.670Z,13.98
2022-10-17T05:13:36.669Z,13.94
2022-10-17T05:14:36.650Z,13.91
2022-10-17T05:15:36.653Z,13.91
2022-10-17T05:16:36.633Z,13.90
2022-10-17T05:17:36.598Z,13.88
2022-10-17T05:18:36.611Z,13.87
2022-10-17T05:19:36.580Z,13.86
2022-10-17T05:20:36.574Z,13.87
2022-10-17T05:21:36.583Z,13.86
2022-10-17T05:22:39.668Z,13.86
2022-10-17T05:23:37.550Z,13.88
2022-10-17T05:24:36.519Z,13.88
2022-10-17T05:25:36.513Z,13.87
2022-10-17T05:26:36.509Z,13.86
2022-10-17T05:27:36.480Z,13.98
2022-10-17T05:28:36.534Z,13.94
2022-10-17T05:29:36.471Z,13.94
2022-10-17T05:30:37.529Z,13.90
2022-10-17T05:31:36.421Z,13.88
2022-10-17T05:32:36.449Z,13.84
2022-10-17T05:33:36.419Z,13.83
2022-10-17T05:34:36.398Z,13.87
2022-10-17T05:35:36.377Z,13.90
2022-10-17T05:36:36.377Z,13.90
2022-10-17T05:37:36.364Z,13.87
2022-10-17T05:38:36.389Z,13.84
2022-10-17T05:39:36.347Z,13.81
2022-10-17T05:40:36.308Z,13.84
2022-10-17T05:41:36.298Z,13.84
2022-10-17T05:42:36.339Z,13.84
2022-10-17T05:43:36.287Z,13.80
2022-10-17T05:44:36.268Z,13.80
2022-10-17T05:45:36.245Z,13.86
2022-10-17T05:46:36.238Z,13.88
2022-10-17T05:47:36.239Z,13.93
2022-10-17T05:48:36.228Z,13.91
2022-10-17T05:49:52.643Z,13.88
2022-10-17T05:50:37.331Z,13.88
2022-10-17T05:51:36.204Z,13.86
2022-10-17T05:52:36.167Z,13.84
2022-10-17T05:53:36.160Z,13.87
2022-10-17T05:54:36.125Z,13.87
2022-10-17T05:55:36.126Z,13.83
2022-10-17T05:56:36.115Z,13.83
2022-10-17T05:57:36.109Z,13.83
2022-10-17T05:58:49.906Z,13.80
2022-10-17T05:59:37.074Z,13.79
2022-10-17T06:00:36.119Z,13.79
2022-10-17T06:01:36.070Z,13.80
2022-10-17T06:02:36.070Z,13.79
2022-10-17T06:03:36.064Z,13.80
2022-10-17T06:04:36.135Z,13.79
2022-10-17T06:05:35.983Z,13.80
2022-10-17T06:06:35.993Z,13.80
2022-10-17T06:07:35.974Z,13.81
2022-10-17T06:08:35.972Z,13.81
2022-10-17T06:09:36.169Z,13.83
2022-10-17T06:10:35.939Z,13.83
2022-10-17T06:11:35.922Z,13.83
2022-10-17T06:12:35.930Z,13.84
2022-10-17T06:13:35.912Z,13.84
2022-10-17T06:14:35.934Z,13.84
2022-10-17T06:15:35.913Z,13.86
2022-10-17T06:16:35.874Z,13.84
2022-10-17T06:17:35.853Z,13.86
2022-10-17T06:18:35.911Z,13.87
2022-10-17T06:19:35.815Z,13.90
2022-10-17T06:20:35.809Z,13.90
2022-10-17T06:21:35.805Z,13.91
2022-10-17T06:22:35.792Z,13.98
2022-10-17T06:23:35.804Z,13.96
2022-10-17T06:24:35.758Z,13.98
2022-10-17T06:25:35.793Z,13.98
2022-10-17T06:26:35.788Z,13.99
2022-10-17T06:27:35.829Z,14.01
2022-10-17T06:28:35.761Z,13.99
2022-10-17T06:29:35.814Z,14.01
2022-10-17T06:30:35.678Z,14.02
2022-10-17T06:31:35.655Z,14.02
2022-10-17T06:32:35.651Z,14.02
2022-10-17T06:33:35.669Z,14.04
2022-10-17T06:34:35.629Z,14.05
2022-10-17T06:35:35.615Z,14.04
2022-10-17T06:36:35.620Z,14.06
2022-10-17T06:37:36.954Z,14.09
2022-10-17T06:38:35.603Z,14.12
2022-10-17T06:39:35.557Z,14.12
2022-10-17T06:40:35.537Z,14.16
2022-10-17T06:41:35.534Z,14.17
2022-10-17T06:42:35.520Z,14.19
2022-10-17T06:43:35.507Z,14.23
2022-10-17T06:44:35.508Z,14.23
2022-10-17T06:45:35.486Z,14.24
2022-10-17T06:46:35.468Z,14.27
2022-10-17T06:47:35.503Z,14.30
2022-10-17T06:48:36.415Z,14.35
2022-10-17T06:49:35.428Z,14.36
2022-10-17T06:50:35.572Z,14.36
2022-10-17T06:51:35.406Z,14.38
2022-10-17T06:52:35.390Z,14.39
2022-10-17T06:53:35.388Z,14.42
2022-10-17T06:54:35.399Z,14.42
2022-10-17T06:55:35.369Z,14.45
2022-10-17T06:56:35.337Z,14.45
2022-10-17T06:57:35.336Z,14.48
2022-10-17T06:58:35.355Z,14.52
2022-10-17T06:59:35.316Z,14.52
2022-10-17T07:00:35.453Z,14.53
2022-10-17T07:01:35.277Z,14.56
2022-10-17T07:02:35.266Z,14.59
2022-10-17T07:03:35.238Z,14.60
2022-10-17T07:04:35.236Z,14.64
2022-10-17T07:05:35.209Z,14.66
2022-10-17T07:06:35.233Z,14.69
2022-10-17T07:07:36.843Z,14.72
2022-10-17T07:08:35.185Z,14.74
2022-10-17T07:09:35.174Z,14.75
2022-10-17T07:10:35.159Z,14.79
2022-10-17T07:11:35.480Z,14.80
2022-10-17T07:12:35.156Z,14.82
2022-10-17T07:13:38.955Z,14.86
2022-10-17T07:14:35.714Z,14.90
2022-10-17T07:15:35.098Z,14.94
2022-10-17T07:16:35.084Z,14.94
2022-10-17T07:17:35.399Z,14.97
2022-10-17T07:18:35.107Z,15.00
2022-10-17T07:19:35.056Z,15.01
2022-10-17T07:20:35.057Z,15.01
2022-10-17T07:21:38.205Z,15.00
2022-10-17T07:22:35.004Z,15.03
2022-10-17T07:23:34.993Z,15.07
2022-10-17T07:24:35.004Z,15.07
2022-10-17T07:25:37.771Z,15.11
2022-10-17T07:26:35.970Z,15.13
2022-10-17T07:27:34.933Z,15.15
2022-10-17T07:28:35.011Z,15.18
2022-10-17T07:29:34.913Z,15.19
2022-10-17T07:30:34.940Z,15.20
2022-10-17T07:31:34.885Z,15.22
2022-10-17T07:32:34.872Z,15.23
2022-10-17T07:33:34.976Z,15.25
2022-10-17T07:34:34.852Z,15.28
2022-10-17T07:35:34.840Z,15.31
2022-10-17T07:36:35.701Z,15.35
2022-10-17T07:37:34.824Z,15.35
2022-10-17T07:38:34.832Z,15.37
2022-10-17T07:39:34.803Z,15.41
2022-10-17T07:40:34.785Z,15.43
2022-10-17T07:41:34.751Z,15.48
2022-10-17T07:42:34.926Z,15.55
2022-10-17T07:43:34.898Z,15.62
2022-10-17T07:44:34.741Z,15.70
2022-10-17T07:45:34.725Z,15.77
2022-10-17T07:46:34.704Z,15.84
2022-10-17T07:47:34.720Z,15.86
2022-10-17T07:48:34.681Z,15.89
2022-10-17T07:49:34.698Z,15.92
2022-10-17T07:50:34.648Z,15.93
2022-10-17T07:51:41.785Z,15.93
2022-10-17T07:52:34.664Z,15.99
2022-10-17T07:53:34.871Z,16.04
2022-10-17T07:54:34.629Z,16.07
2022-10-17T07:55:34.589Z,16.08
2022-10-17T07:56:34.631Z,16.10
2022-10-17T07:57:34.573Z,16.13
2022-10-17T07:58:34.632Z,16.17
2022-10-17T07:59:34.559Z,16.22
2022-10-17T08:00:34.609Z,16.26
2022-10-17T08:01:34.543Z,16.30
2022-10-17T08:02:34.626Z,16.33
2022-10-17T08:03:34.543Z,16.33
2022-10-17T08:04:34.504Z,16.36
2022-10-17T08:05:34.484Z,16.40
2022-10-17T08:06:34.500Z,16.44
2022-10-17T08:07:34.430Z,16.48
2022-10-17T08:08:34.426Z,16.52
2022-10-17T08:09:34.398Z,16.55
2022-10-17T08:10:34.432Z,16.60
2022-10-17T08:11:34.418Z,16.62
2022-10-17T08:12:34.406Z,16.67
2022-10-17T08:13:34.473Z,16.67
2022-10-17T08:14:34.350Z,16.73
2022-10-17T08:15:34.360Z,16.77
2022-10-17T08:16:34.350Z,16.80
2022-10-17T08:17:34.335Z,16.84
2022-10-17T08:18:34.380Z,16.91
2022-10-17T08:19:34.297Z,16.96
2022-10-17T08:20:34.327Z,17.00
2022-10-17T08:21:34.277Z,17.06
2022-10-17T08:22:34.250Z,17.09
2022-10-17T08:23:34.238Z,17.14
2022-10-17T08:24:34.233Z,17.17
2022-10-17T08:25:34.297Z,17.15
2022-10-17T08:26:35.046Z,17.17
2022-10-17T08:27:34.197Z,17.15
2022-10-17T08:28:34.287Z,17.14
2022-10-17T08:29:34.464Z,17.14
2022-10-17T08:30:34.258Z,17.17
2022-10-17T08:31:34.212Z,17.15
2022-10-17T08:32:34.175Z,17.17
2022-10-17T08:33:34.173Z,17.21
2022-10-17T08:34:34.129Z,17.30
2022-10-17T08:35:34.148Z,17.38
2022-10-17T08:36:34.072Z,17.43
2022-10-17T08:37:34.329Z,17.46
2022-10-17T08:38:35.654Z,17.49
2022-10-17T08:39:34.100Z,17.55
2022-10-17T08:40:34.056Z,17.60
2022-10-17T08:41:34.012Z,17.62
2022-10-17T08:42:33.994Z,17.60
2022-10-17T08:43:35.617Z,17.63
2022-10-17T08:44:33.989Z,17.68
2022-10-17T08:45:34.098Z,17.73
2022-10-17T08:46:33.997Z,17.77
2022-10-17T08:47:33.922Z,17.81
2022-10-17T08:48:33.949Z,17.81
2022-10-17T08:49:33.939Z,17.89
2022-10-17T08:50:33.897Z,17.94
2022-10-17T08:51:34.113Z,17.96
2022-10-17T08:52:33.859Z,18.01
2022-10-17T08:53:33.895Z,18.05
2022-10-17T08:54:33.851Z,18.11
2022-10-17T08:55:33.902Z,18.16
2022-10-17T08:56:48.020Z,18.17
2022-10-17T08:57:35.566Z,18.19
2022-10-17T08:58:33.769Z,18.21
2022-10-17T08:59:33.795Z,18.25
2022-10-17T09:00:33.848Z,18.26
2022-10-17T09:01:33.856Z,18.29
2022-10-17T09:02:33.803Z,18.32
2022-10-17T09:03:33.738Z,18.36
2022-10-17T09:04:33.744Z,18.41
2022-10-17T09:05:33.724Z,18.46
2022-10-17T09:06:33.754Z,18.53
2022-10-17T09:07:33.669Z,18.62
2022-10-17T09:08:33.646Z,18.71
2022-10-17T09:09:33.730Z,18.76
2022-10-17T09:10:33.636Z,18.78
2022-10-17T09:11:33.613Z,18.79
2022-10-17T09:12:33.587Z,18.79
2022-10-17T09:13:33.667Z,18.83
2022-10-17T09:14:33.735Z,18.84
2022-10-17T09:15:33.572Z,18.86
2022-10-17T09:16:33.616Z,18.94
2022-10-17T09:17:33.622Z,18.97
2022-10-17T09:18:33.673Z,19.05
2022-10-17T09:19:33.515Z,19.09
2022-10-17T09:20:33.639Z,19.13
2022-10-17T09:21:33.526Z,19.15
2022-10-17T09:22:33.490Z,19.16
2022-10-17T09:23:33.479Z,19.16
2022-10-17T09:24:33.452Z,19.17
2022-10-17T09:25:33.463Z,19.23
2022-10-17T09:26:33.459Z,19.21
2022-10-17T09:27:33.397Z,19.23
2022-10-17T09:28:33.549Z,19.24
2022-10-17T09:29:37.903Z,19.25
2022-10-17T09:30:44.834Z,19.28
2022-10-17T09:31:34.396Z,19.31
2022-10-17T09:32:33.479Z,19.34
2022-10-17T09:33:35.389Z,19.32
2022-10-17T09:34:34.326Z,19.32
2022-10-17T09:35:33.337Z,19.32
2022-10-17T09:36:33.431Z,19.38
2022-10-17T09:37:33.416Z,19.42
2022-10-17T09:38:33.257Z,19.45
2022-10-17T09:39:33.321Z,19.47
2022-10-17T09:40:33.244Z,19.49
2022-10-17T09:41:44.710Z,19.57
2022-10-17T09:42:34.223Z,19.58
2022-10-17T09:43:34.308Z,19.60
2022-10-17T09:44:33.347Z,19.61
2022-10-17T09:45:33.185Z,19.65
2022-10-17T09:46:33.225Z,19.65
2022-10-17T09:47:33.164Z,19.70
2022-10-17T09:48:33.142Z,19.75
2022-10-17T09:49:33.127Z,19.78
2022-10-17T09:50:33.147Z,19.80
2022-10-17T09:51:33.086Z,19.87
2022-10-17T09:52:33.085Z,19.92
2022-10-17T09:53:33.105Z,19.94
2022-10-17T09:54:33.111Z,19.97
2022-10-17T09:55:33.072Z,20.01
2022-10-17T09:56:33.086Z,20.02
2022-10-17T09:57:33.158Z,20.08
2022-10-17T09:58:33.053Z,20.16
2022-10-17T09:59:33.091Z,20.19
2022-10-17T10:00:33.150Z,20.23
2022-10-17T10:01:33.043Z,20.27
2022-10-17T10:02:33.404Z,20.38
2022-10-17T10:03:32.954Z,20.48
2022-10-17T10:04:46.783Z,20.50
2022-10-17T10:05:33.914Z,20.53
2022-10-17T10:06:32.916Z,20.56
2022-10-17T10:07:32.964Z,20.61
2022-10-17T10:08:32.895Z,20.63
2022-10-17T10:09:34.859Z,20.63
2022-10-17T10:10:32.885Z,20.71
2022-10-17T10:11:32.893Z,20.76
2022-10-17T10:12:33.260Z,20.82
2022-10-17T10:13:32.844Z,20.90
2022-10-17T10:14:32.872Z,21.00
2022-10-17T10:15:32.843Z,21.09
2022-10-17T10:16:33.588Z,21.16
2022-10-17T10:17:32.849Z,21.21
2022-10-17T10:18:33.798Z,21.24
2022-10-17T10:19:32.792Z,21.28
2022-10-17T10:20:32.791Z,21.28
2022-10-17T10:21:33.426Z,21.24
2022-10-17T10:22:33.065Z,21.26
2022-10-17T10:23:32.755Z,21.27
2022-10-17T10:24:32.690Z,21.33
2022-10-17T10:25:32.666Z,21.34
2022-10-17T10:26:32.696Z,21.38
2022-10-17T10:28:32.711Z,21.46
2022-10-17T10:29:32.646Z,21.46
2022-10-17T10:30:36.142Z,21.51
2022-10-17T10:31:33.575Z,21.51
2022-10-17T10:32:32.779Z,21.51
2022-10-17T10:33:32.561Z,21.51
2022-10-17T10:34:32.580Z,21.56
2022-10-17T10:35:32.533Z,21.58
2022-10-17T10:36:32.597Z,21.61
2022-10-17T10:37:32.986Z,21.66
2022-10-17T10:38:32.544Z,21.70
2022-10-17T10:39:32.581Z,21.75
2022-10-17T10:40:32.695Z,21.83
2022-10-17T10:41:32.479Z,21.91
2022-10-17T10:42:32.440Z,21.98
2022-10-17T10:43:33.264Z,22.02
2022-10-17T10:44:32.465Z,22.06
2022-10-17T10:45:48.913Z,22.12
2022-10-17T10:46:33.486Z,22.15
2022-10-17T10:47:32.882Z,22.14
2022-10-17T10:48:32.435Z,22.19
2022-10-17T10:49:32.384Z,22.19
2022-10-17T10:50:32.366Z,22.17
2022-10-17T10:51:32.389Z,22.14
2022-10-17T10:52:32.637Z,22.14
2022-10-17T10:53:35.221Z,22.17
2022-10-17T10:54:32.353Z,22.15
2022-10-17T10:55:32.301Z,22.19
2022-10-17T10:56:32.314Z,22.24
2022-10-17T10:57:32.634Z,22.29
2022-10-17T10:58:32.261Z,22.36
2022-10-17T10:59:32.268Z,22.44
2022-10-17T11:00:32.265Z,22.48
2022-10-17T11:01:32.262Z,22.56
2022-10-17T11:02:32.284Z,22.61
2022-10-17T11:03:32.226Z,22.63
2022-10-17T11:04:32.211Z,22.61
2022-10-17T11:05:32.154Z,22.64
2022-10-17T11:06:32.137Z,22.66
2022-10-17T11:07:32.509Z,22.66
2022-10-17T11:08:32.104Z,22.63
2022-10-17T11:09:33.773Z,22.61
2022-10-17T11:10:32.150Z,22.67
2022-10-17T11:11:32.101Z,22.72
2022-10-17T11:12:32.146Z,22.75
2022-10-17T11:13:32.081Z,22.75
2022-10-17T11:14:32.059Z,22.70
2022-10-17T11:15:32.083Z,22.69
2022-10-17T11:16:32.023Z,22.64
2022-10-17T11:17:32.477Z,22.66
2022-10-17T11:18:32.051Z,22.66
2022-10-17T11:19:31.988Z,22.66
2022-10-17T11:20:32.051Z,22.66
2022-10-17T11:21:31.996Z,22.64
2022-10-17T11:22:32.421Z,22.66
2022-10-17T11:23:31.912Z,22.67
2022-10-17T11:24:31.914Z,22.70
2022-10-17T11:25:31.924Z,22.72
2022-10-17T11:26:31.920Z,22.72
2022-10-17T11:27:31.875Z,22.75
2022-10-17T11:28:31.985Z,22.70
2022-10-17T11:29:31.931Z,22.70
2022-10-17T11:30:31.953Z,22.72
2022-10-17T11:31:31.822Z,22.78
2022-10-17T11:32:32.126Z,22.78
2022-10-17T11:33:32.227Z,22.76
2022-10-17T11:34:31.822Z,22.75
2022-10-17T11:35:31.789Z,22.72
2022-10-17T11:36:31.760Z,22.75
2022-10-17T11:37:31.816Z,22.81
2022-10-17T11:38:31.742Z,22.79
2022-10-17T11:39:31.794Z,22.79
2022-10-17T11:40:31.706Z,22.79
2022-10-17T11:41:31.749Z,22.81
2022-10-17T11:42:32.413Z,22.82
2022-10-17T11:43:31.687Z,22.84
2022-10-17T11:44:31.680Z,22.86
2022-10-17T11:45:31.725Z,22.85
2022-10-17T11:46:31.620Z,22.89
2022-10-17T11:47:31.647Z,22.89
2022-10-17T11:48:31.598Z,22.91
2022-10-17T11:49:33.982Z,22.96
2022-10-17T11:52:51.886Z,23.06
2022-10-17T11:53:32.816Z,23.07
2022-10-17T11:54:31.518Z,23.06
2022-10-17T11:55:31.536Z,23.03
2022-10-17T11:56:31.489Z,23.01
2022-10-17T11:57:31.501Z,23.00
2022-10-17T11:58:31.898Z,23.09
2022-10-17T11:59:32.641Z,23.12
2022-10-17T12:00:32.439Z,23.12
2022-10-17T12:01:31.487Z,23.18
2022-10-17T12:02:32.069Z,23.22
2022-10-17T12:03:31.430Z,23.29
2022-10-17T12:04:31.461Z,23.38
2022-10-17T12:05:31.405Z,23.45
2022-10-17T12:06:31.433Z,23.49
2022-10-17T12:07:31.717Z,23.49
2022-10-17T12:08:31.467Z,23.42
2022-10-17T12:09:31.424Z,23.37
2022-10-17T12:10:31.393Z,23.37
2022-10-17T12:11:31.287Z,23.41
2022-10-17T12:12:31.964Z,23.47
2022-10-17T12:13:31.303Z,23.50
2022-10-17T12:14:31.745Z,23.52
2022-10-17T12:15:31.244Z,23.53
2022-10-17T12:16:31.300Z,23.53
2022-10-17T12:17:31.689Z,23.57
2022-10-17T12:18:31.241Z,23.59
2022-10-17T12:19:31.311Z,23.57
2022-10-17T12:20:31.219Z,23.60
2022-10-17T12:21:32.264Z,23.57
2022-10-17T12:22:31.180Z,23.57
2022-10-17T12:23:31.191Z,23.54
2022-10-17T12:24:31.142Z,23.56
2022-10-17T12:25:31.635Z,23.59
2022-10-17T12:26:31.106Z,23.64
2022-10-17T12:27:31.578Z,23.69
2022-10-17T12:28:31.128Z,23.71
2022-10-17T12:29:31.095Z,23.72
2022-10-17T12:30:31.059Z,23.69
2022-10-17T12:31:34.032Z,23.67
2022-10-17T12:32:46.846Z,23.63
2022-10-17T12:33:32.127Z,23.60
2022-10-17T12:34:31.259Z,23.59
2022-10-17T12:35:32.560Z,23.63
2022-10-17T12:36:31.041Z,23.68
2022-10-17T12:37:31.357Z,23.74
2022-10-17T12:38:31.020Z,23.75
2022-10-17T12:39:31.001Z,23.72
2022-10-17T12:40:30.942Z,23.64
2022-10-17T12:41:30.946Z,23.60
2022-10-17T12:42:31.286Z,23.60
2022-10-17T12:43:30.975Z,23.57
2022-10-17T12:44:33.120Z,23.59
2022-10-17T12:45:30.917Z,23.59
2022-10-17T12:46:30.917Z,23.54
2022-10-17T12:47:31.142Z,23.59
2022-10-17T12:48:30.949Z,23.57
2022-10-17T12:49:30.826Z,23.56
2022-10-17T12:50:34.798Z,23.59
2022-10-17T12:51:36.311Z,23.67
2022-10-17T12:52:31.803Z,23.72
2022-10-17T12:53:30.835Z,23.77
2022-10-17T12:54:37.907Z,23.86
2022-10-17T12:55:31.790Z,23.89
2022-10-17T12:56:30.737Z,23.84
2022-10-17T12:57:31.071Z,23.75
2022-10-17T12:58:30.732Z,23.71
2022-10-17T12:59:30.693Z,23.67
2022-10-17T13:00:30.837Z,23.62